Time;durP1;ratioP1;P1;durP2;ratioP2;P2;SDS_P1;SDS_P2;PMS_P1;PMS_P2;Temp;Humidity;BMP_temperature;BMP_pressure;BME280_temperature;BME280_humidity;BME280_pressure;Samples;Min_cycle;Max_cycle;Signal;HPM_P1;HPM_P2
2022/07/17 00:00:53;;;;;;;5.30;1.95;;;18.20;99.90;;;;;;5055502;28;20060;-80
2022/07/17 00:03:19;;;;;;;6.28;1.95;;;18.00;99.90;;;;;;5055038;28;20466;-79
2022/07/17 00:05:45;;;;;;;4.80;1.83;;;18.20;99.90;;;;;;5054727;28;20071;-80
2022/07/17 00:08:12;;;;;;;5.90;1.80;;;18.50;99.90;;;;;;5055332;28;20032;-81
2022/07/17 00:10:41;;;;;;;9.15;2.22;;;18.70;99.90;;;;;;5055506;28;20025;-80
2022/07/17 00:13:07;;;;;;;7.95;2.03;;;18.60;99.90;;;;;;5053494;28;20429;-79
2022/07/17 00:15:33;;;;;;;5.50;1.95;;;18.40;99.90;;;;;;5055241;28;20021;-79
2022/07/17 00:18:00;;;;;;;9.05;2.05;;;18.30;99.90;;;;;;5033645;28;20068;-79
2022/07/17 00:20:28;;;;;;;6.68;1.98;;;17.70;99.90;;;;;;5052769;28;20496;-79
2022/07/17 00:22:57;;;;;;;5.18;1.95;;;17.90;99.90;;;;;;5054027;28;20095;-81
2022/07/17 00:25:24;;;;;;;8.90;2.03;;;17.90;99.90;;;;;;5054141;28;20495;-81
2022/07/17 00:27:50;;;;;;;4.85;2.10;;;18.00;99.90;;;;;;5054007;28;20424;-80
2022/07/17 00:30:16;;;;;;;3.67;1.83;;;17.70;99.90;;;;;;5054886;28;20025;-80
2022/07/17 00:32:43;;;;;;;9.68;2.10;;;17.80;99.90;;;;;;5054832;28;20025;-79
2022/07/17 00:35:09;;;;;;;8.63;1.70;;;17.90;99.90;;;;;;5055104;28;20029;-81
2022/07/17 00:37:43;;;;;;;5.75;1.77;;;17.80;99.90;;;;;;5055127;28;20116;-81
2022/07/17 00:40:11;;;;;;;5.00;1.60;;;17.90;99.90;;;;;;5055089;28;20112;-80
2022/07/17 00:42:40;;;;;;;4.90;2.15;;;17.90;99.90;;;;;;5053914;28;20527;-80
2022/07/17 00:45:07;;;;;;;5.20;1.48;;;17.80;99.90;;;;;;5054663;28;20104;-80
2022/07/17 00:47:33;;;;;;;10.73;2.08;;;17.90;99.90;;;;;;5054709;28;20445;-81
2022/07/17 00:49:59;;;;;;;8.45;2.33;;;17.40;99.90;;;;;;5054486;28;20060;-80
2022/07/17 00:52:24;;;;;;;6.88;1.92;;;17.10;99.90;;;;;;5054850;28;20083;-79
2022/07/17 00:54:51;;;;;;;12.35;2.33;;;16.90;99.90;;;;;;5054558;28;20029;-79
2022/07/17 00:57:18;;;;;;;4.72;2.03;;;17.00;99.90;;;;;;5054788;28;20017;-80
2022/07/17 00:59:44;;;;;;;4.60;2.08;;;16.80;99.90;;;;;;5054937;28;20087;-81
2022/07/17 01:02:12;;;;;;;6.43;2.70;;;17.10;99.90;;;;;;5052891;28;20025;-80
2022/07/17 01:04:39;;;;;;;16.52;2.58;;;17.20;99.90;;;;;;5054324;28;20090;-78
2022/07/17 01:07:06;;;;;;;6.90;2.10;;;17.20;99.90;;;;;;5053139;28;20108;-80
2022/07/17 01:09:33;;;;;;;5.07;2.20;;;17.20;99.90;;;;;;5054185;28;20032;-79
2022/07/17 01:11:59;;;;;;;8.18;2.40;;;17.10;99.90;;;;;;5054379;28;20028;-80
2022/07/17 01:14:27;;;;;;;9.15;2.53;;;17.40;99.90;;;;;;5054189;28;20021;-79
2022/07/17 01:16:53;;;;;;;7.18;2.15;;;17.40;99.90;;;;;;5054006;28;20052;-80
2022/07/17 01:19:20;;;;;;;9.77;2.50;;;17.30;99.90;;;;;;5052637;28;20064;-79
2022/07/17 01:21:49;;;;;;;8.25;2.42;;;17.60;99.90;;;;;;5052956;28;20028;-80
2022/07/17 01:24:16;;;;;;;7.68;2.50;;;17.70;99.90;;;;;;5054045;28;20024;-80
2022/07/17 01:26:47;;;;;;;7.68;2.75;;;17.60;99.90;;;;;;5036131;28;20389;-79
2022/07/17 01:29:15;;;;;;;6.38;2.30;;;17.50;99.90;;;;;;5052645;28;20568;-80
2022/07/17 01:31:42;;;;;;;9.40;2.75;;;17.50;99.90;;;;;;5053805;28;20017;-80
2022/07/17 01:34:09;;;;;;;15.25;2.90;;;17.40;99.90;;;;;;5052806;28;20037;-78
2022/07/17 01:36:36;;;;;;;10.70;2.80;;;17.50;99.90;;;;;;5054008;28;20060;-81
2022/07/17 01:39:03;;;;;;;11.57;3.15;;;17.40;99.90;;;;;;5053995;28;20443;-78
2022/07/17 01:41:29;;;;;;;6.68;2.45;;;17.30;99.90;;;;;;5053550;28;20029;-79
2022/07/17 01:43:55;;;;;;;6.43;2.13;;;17.40;99.90;;;;;;5052657;28;20029;-79
2022/07/17 01:46:20;;;;;;;11.07;2.60;;;17.20;99.90;;;;;;5053396;28;20082;-79
2022/07/17 01:48:46;;;;;;;10.73;2.90;;;17.10;99.90;;;;;;5053656;28;20040;-79
2022/07/17 01:51:12;;;;;;;5.70;2.38;;;17.20;99.90;;;;;;5052133;28;20032;-80
2022/07/17 01:53:38;;;;;;;9.32;2.42;;;17.30;99.90;;;;;;5053831;28;20485;-80
2022/07/17 01:56:04;;;;;;;11.13;2.40;;;17.30;99.90;;;;;;5053432;28;20055;-79
2022/07/17 01:58:30;;;;;;;9.43;2.28;;;17.40;99.90;;;;;;5051926;28;20120;-79
2022/07/17 02:00:56;;;;;;;6.72;2.45;;;17.40;99.90;;;;;;5053533;28;20028;-80
2022/07/17 02:03:22;;;;;;;8.20;2.17;;;17.20;99.90;;;;;;5052776;28;20032;-80
2022/07/17 02:05:48;;;;;;;8.27;2.50;;;17.10;99.90;;;;;;5052468;28;20110;-78
2022/07/17 02:08:14;;;;;;;6.13;2.58;;;17.30;99.90;;;;;;5053128;28;20072;-79
2022/07/17 02:10:40;;;;;;;7.50;2.10;;;17.50;99.90;;;;;;5053502;28;20538;-80
2022/07/17 02:13:05;;;;;;;10.90;2.42;;;17.30;99.90;;;;;;5053095;28;20100;-79
2022/07/17 02:15:31;;;;;;;9.63;2.92;;;17.10;99.90;;;;;;5052850;28;20502;-79
2022/07/17 02:17:57;;;;;;;5.30;2.53;;;17.00;99.90;;;;;;5053225;28;20370;-79
2022/07/17 02:20:24;;;;;;;5.45;2.45;;;16.90;99.90;;;;;;5053070;28;20017;-80
2022/07/17 02:22:50;;;;;;;7.20;2.63;;;16.70;99.90;;;;;;5051788;28;20578;-79
2022/07/17 02:25:16;;;;;;;6.82;2.63;;;16.60;99.90;;;;;;5051712;28;20028;-78
2022/07/17 02:27:42;;;;;;;8.57;2.85;;;16.80;99.90;;;;;;5052532;28;20025;-78
2022/07/17 02:30:11;;;;;;;10.88;2.58;;;16.60;99.90;;;;;;5053069;28;20048;-79
2022/07/17 02:32:36;;;;;;;6.63;2.42;;;16.60;99.90;;;;;;5052901;28;20047;-79
2022/07/17 02:35:03;;;;;;;8.15;2.20;;;16.40;99.90;;;;;;5052997;28;20462;-78
2022/07/17 02:37:29;;;;;;;5.70;2.28;;;16.30;99.90;;;;;;5052477;28;20033;-79
2022/07/17 02:39:55;;;;;;;11.40;2.35;;;16.40;99.90;;;;;;5051594;28;20109;-79
2022/07/17 02:42:25;;;;;;;4.72;2.28;;;16.60;99.90;;;;;;5052531;28;20108;-79
2022/07/17 02:44:52;;;;;;;4.88;2.08;;;16.40;99.90;;;;;;5052796;28;20029;-78
2022/07/17 02:47:32;;;;;;;9.45;2.13;;;16.40;99.90;;;;;;5052696;28;20096;-78
2022/07/17 02:50:01;;;;;;;8.55;2.38;;;16.30;99.90;;;;;;5051355;28;20428;-79
2022/07/17 02:52:27;;;;;;;5.95;2.13;;;16.40;99.90;;;;;;5052705;28;20025;-79
2022/07/17 02:54:52;;;;;;;13.70;3.10;;;16.20;99.90;;;;;;5052606;28;20036;-78
2022/07/17 02:57:19;;;;;;;10.70;2.20;;;16.20;99.90;;;;;;5052179;28;20025;-78
2022/07/17 02:59:45;;;;;;;6.68;2.10;;;16.20;99.90;;;;;;5052789;28;20412;-78
2022/07/17 03:02:11;;;;;;;11.38;2.42;;;16.20;99.90;;;;;;5052569;28;20029;-78
2022/07/17 03:04:37;;;;;;;7.20;2.45;;;16.20;99.90;;;;;;5052602;28;20032;-78
2022/07/17 03:07:03;;;;;;;6.68;2.00;;;16.10;99.90;;;;;;5052208;28;20462;-78
2022/07/17 03:09:29;;;;;;;5.90;2.00;;;16.30;99.90;;;;;;5051034;28;20082;-77
2022/07/17 03:11:55;;;;;;;11.27;2.80;;;16.10;99.90;;;;;;5050937;28;20021;-78
2022/07/17 03:14:21;;;;;;;8.55;2.33;;;16.40;99.90;;;;;;5052564;28;20037;-79
2022/07/17 03:16:46;;;;;;;9.55;2.33;;;16.40;99.90;;;;;;5053593;28;20021;-78
2022/07/17 03:19:12;;;;;;;10.82;2.88;;;16.50;99.90;;;;;;5056010;28;20215;-78
2022/07/17 03:21:38;;;;;;;15.80;2.50;;;16.30;99.90;;;;;;5056451;28;20053;-79
2022/07/17 03:24:04;;;;;;;10.10;2.45;;;16.50;99.90;;;;;;5056198;28;20024;-79
2022/07/17 03:26:30;;;;;;;9.88;2.60;;;16.50;99.90;;;;;;5056265;28;20029;-78
2022/07/17 03:28:55;;;;;;;10.57;2.28;;;16.50;99.90;;;;;;5056129;28;20051;-79
2022/07/17 03:31:21;;;;;;;8.02;2.50;;;16.50;99.90;;;;;;5055156;28;20518;-78
2022/07/17 03:33:47;;;;;;;10.52;2.17;;;16.30;99.90;;;;;;5056182;28;20074;-78
2022/07/17 03:36:13;;;;;;;8.20;2.03;;;16.40;99.90;;;;;;5056179;28;20455;-78
2022/07/17 03:38:38;;;;;;;8.48;2.72;;;16.40;99.90;;;;;;5055954;28;20045;-79
2022/07/17 03:41:04;;;;;;;8.45;2.25;;;16.50;99.90;;;;;;5054557;28;20017;-79
2022/07/17 03:43:30;;;;;;;9.05;2.38;;;16.40;99.90;;;;;;5056096;28;20468;-78
2022/07/17 03:45:56;;;;;;;10.35;2.35;;;16.60;99.90;;;;;;5056185;28;20023;-78
2022/07/17 03:48:22;;;;;;;13.25;2.67;;;16.40;99.90;;;;;;5055762;28;20389;-79
2022/07/17 03:50:47;;;;;;;6.78;2.28;;;16.10;99.90;;;;;;5054595;28;20492;-78
2022/07/17 03:53:13;;;;;;;6.40;1.90;;;16.10;99.90;;;;;;5053807;28;20033;-78
2022/07/17 03:55:39;;;;;;;6.43;2.03;;;16.20;99.90;;;;;;5055461;28;20040;-78
2022/07/17 03:58:05;;;;;;;5.68;2.25;;;16.30;99.90;;;;;;5054421;28;20427;-78
2022/07/17 04:00:31;;;;;;;6.80;2.03;;;16.20;99.90;;;;;;5055570;28;20025;-78
2022/07/17 04:02:57;;;;;;;7.97;1.70;;;16.20;99.90;;;;;;5055672;28;20067;-77
2022/07/17 04:05:22;;;;;;;7.05;2.42;;;16.20;99.90;;;;;;5054534;28;20021;-78
2022/07/17 04:07:48;;;;;;;6.18;1.80;;;16.30;99.90;;;;;;5055604;28;20037;-78
2022/07/17 04:10:15;;;;;;;7.10;2.45;;;16.20;99.90;;;;;;5053711;28;20542;-78
2022/07/17 04:12:41;;;;;;;10.55;2.47;;;16.20;99.90;;;;;;5053987;28;20025;-78
2022/07/17 04:15:08;;;;;;;6.47;2.20;;;16.40;99.90;;;;;;5052922;28;20027;-78
2022/07/17 04:17:35;;;;;;;7.70;2.55;;;16.50;99.90;;;;;;5054283;28;20036;-78
2022/07/17 04:20:01;;;;;;;6.82;2.00;;;16.50;99.90;;;;;;5054331;28;20055;-78
2022/07/17 04:22:27;;;;;;;8.32;2.40;;;16.40;99.90;;;;;;5036120;28;20039;-78
2022/07/17 04:24:53;;;;;;;13.70;2.40;;;16.30;99.90;;;;;;5053790;28;20029;-79
2022/07/17 04:27:19;;;;;;;9.52;1.98;;;16.30;99.90;;;;;;5053697;28;20025;-79
2022/07/17 04:29:45;;;;;;;8.57;2.25;;;16.30;99.90;;;;;;5054013;28;20370;-78
2022/07/17 04:32:11;;;;;;;10.57;2.55;;;16.10;99.90;;;;;;5053807;28;20113;-79
2022/07/17 04:34:37;;;;;;;7.85;2.00;;;16.00;99.90;;;;;;5053764;28;20112;-79
2022/07/17 04:37:03;;;;;;;14.80;3.03;;;16.00;99.90;;;;;;5052673;28;20126;-79
2022/07/17 04:39:30;;;;;;;7.13;2.17;;;16.00;99.90;;;;;;5053409;28;20049;-78
2022/07/17 04:41:57;;;;;;;6.90;1.98;;;16.00;99.90;;;;;;5054065;28;20027;-79
2022/07/17 04:44:22;;;;;;;11.18;2.55;;;16.00;99.90;;;;;;5052366;28;20497;-79
2022/07/17 04:46:48;;;;;;;8.82;2.00;;;16.20;99.90;;;;;;5053854;28;20021;-78
2022/07/17 04:49:14;;;;;;;8.13;2.63;;;16.20;99.90;;;;;;5053763;28;20543;-77
2022/07/17 04:51:40;;;;;;;7.88;2.28;;;16.30;99.90;;;;;;5053581;28;20051;-79
2022/07/17 04:54:06;;;;;;;8.05;2.15;;;16.40;99.90;;;;;;5053408;28;20094;-79
2022/07/17 04:56:32;;;;;;;9.85;2.10;;;16.50;99.90;;;;;;5052226;28;20481;-79
2022/07/17 04:58:58;;;;;;;8.27;2.63;;;16.40;99.90;;;;;;5052258;28;20067;-79
2022/07/17 05:01:24;;;;;;;9.00;2.03;;;16.40;99.90;;;;;;5052270;28;20029;-79
2022/07/17 05:03:50;;;;;;;8.00;2.20;;;16.50;99.90;;;;;;5053485;28;20033;-79
2022/07/17 05:06:16;;;;;;;5.80;2.40;;;16.60;99.90;;;;;;5053599;28;20485;-78
2022/07/17 05:10:20;;;;;;;7.07;2.58;;;16.70;99.90;;;;;;5131302;27;20108;-64
2022/07/17 05:12:45;;;;;;;9.95;2.63;;;16.70;99.90;;;;;;5131588;28;20020;-65
2022/07/17 05:15:11;;;;;;;8.45;2.80;;;17.10;99.90;;;;;;5131146;27;21460;-65
2022/07/17 05:17:37;;;;;;;12.65;3.08;;;17.10;99.90;;;;;;5131401;27;20026;-64
2022/07/17 05:20:03;;;;;;;7.35;2.33;;;17.10;99.90;;;;;;5131407;27;20395;-64
2022/07/17 05:22:29;;;;;;;6.78;2.17;;;17.00;99.90;;;;;;5131129;27;20542;-65
2022/07/17 05:24:55;;;;;;;8.73;2.22;;;16.90;99.90;;;;;;5131467;27;20019;-65
2022/07/17 05:27:21;;;;;;;11.93;2.30;;;16.90;99.90;;;;;;5131462;27;20509;-65
2022/07/17 05:29:47;;;;;;;9.90;2.95;;;16.90;99.90;;;;;;5131083;27;20456;-64
2022/07/17 05:32:13;;;;;;;8.50;2.25;;;17.20;99.90;;;;;;5130960;27;20035;-65
2022/07/17 05:34:39;;;;;;;10.52;2.28;;;17.40;99.90;;;;;;5130886;28;20015;-66
2022/07/17 05:37:04;;;;;;;7.20;2.72;;;17.50;99.90;;;;;;5131102;27;20027;-64
2022/07/17 05:39:30;;;;;;;11.00;2.35;;;17.70;99.90;;;;;;5131025;27;20019;-66
2022/07/17 05:41:56;;;;;;;8.02;2.38;;;18.00;99.90;;;;;;5131197;27;20099;-66
2022/07/17 05:44:21;;;;;;;10.40;2.95;;;18.00;99.90;;;;;;5130871;27;20449;-64
2022/07/17 05:46:47;;;;;;;10.98;2.33;;;17.90;99.90;;;;;;5130732;28;20023;-65
2022/07/17 05:49:13;;;;;;;8.38;2.00;;;17.70;99.90;;;;;;5113858;28;20051;-64
2022/07/17 05:51:39;;;;;;;9.73;2.33;;;17.50;99.90;;;;;;5094976;28;20023;-71
2022/07/17 05:54:04;;;;;;;9.43;2.40;;;17.60;99.90;;;;;;5122309;28;20023;-66
2022/07/17 05:56:31;;;;;;;7.30;2.13;;;17.90;99.90;;;;;;5116516;28;20019;-66
2022/07/17 05:58:57;;;;;;;14.40;2.40;;;18.20;99.90;;;;;;5109316;28;20453;-65
2022/07/17 06:01:23;;;;;;;7.80;2.03;;;18.60;99.90;;;;;;5112237;28;20050;-65
2022/07/17 06:03:49;;;;;;;7.45;2.08;;;18.90;99.90;;;;;;5111307;28;20443;-65
2022/07/17 06:06:15;;;;;;;5.10;2.13;;;19.00;99.90;;;;;;5120760;27;20031;-65
2022/07/17 06:08:40;;;;;;;12.10;2.53;;;19.10;99.90;;;;;;5112053;28;20046;-67
2022/07/17 06:11:07;;;;;;;8.32;1.92;;;19.20;99.90;;;;;;5098328;28;20036;-66
2022/07/17 06:13:33;;;;;;;7.55;2.80;;;19.10;99.90;;;;;;5110011;28;20024;-66
2022/07/17 06:15:58;;;;;;;8.40;2.40;;;18.90;99.90;;;;;;5113393;28;20028;-65
2022/07/17 06:18:25;;;;;;;12.20;2.67;;;19.00;99.90;;;;;;5119396;28;20019;-65
2022/07/17 06:20:51;;;;;;;7.32;2.25;;;18.90;99.90;;;;;;5101734;28;20053;-65
2022/07/17 06:23:17;;;;;;;9.38;2.40;;;19.00;99.90;;;;;;5090970;28;20028;-66
2022/07/17 06:25:43;;;;;;;6.32;1.85;;;18.80;99.90;;;;;;5094637;28;20020;-67
2022/07/17 06:28:09;;;;;;;10.35;1.80;;;18.40;99.90;;;;;;5096447;28;20020;-65
2022/07/17 06:30:34;;;;;;;8.13;2.03;;;18.50;99.90;;;;;;5088786;28;20158;-65
2022/07/17 06:33:00;;;;;;;6.63;1.65;;;18.50;99.90;;;;;;5095086;28;20051;-65
2022/07/17 06:35:26;;;;;;;6.35;1.77;;;18.70;99.90;;;;;;5081417;28;20038;-65
2022/07/17 06:37:52;;;;;;;6.20;1.75;;;18.60;99.90;;;;;;5083495;28;20054;-65
2022/07/17 06:40:17;;;;;;;6.57;1.90;;;18.90;99.90;;;;;;5097248;28;20035;-65
2022/07/17 06:42:46;;;;;;;7.55;1.50;;;19.30;99.90;;;;;;5096934;28;20028;-65
2022/07/17 06:45:12;;;;;;;10.25;1.95;;;19.00;99.90;;;;;;5097033;28;20020;-65
2022/07/17 06:47:38;;;;;;;7.93;1.98;;;18.90;99.90;;;;;;5096650;28;20090;-66
2022/07/17 06:50:05;;;;;;;6.65;1.85;;;18.90;99.90;;;;;;5079186;28;20540;-67
2022/07/17 06:52:30;;;;;;;8.45;1.67;;;19.50;99.90;;;;;;5094411;28;20445;-67
2022/07/17 06:54:56;;;;;;;11.18;1.52;;;19.60;99.90;;;;;;5103509;28;20055;-65
2022/07/17 06:57:22;;;;;;;5.70;1.60;;;19.70;99.90;;;;;;5099199;28;20115;-65
2022/07/17 06:59:48;;;;;;;15.95;2.85;;;19.80;99.90;;;;;;5098284;28;20020;-65
2022/07/17 07:02:14;;;;;;;10.25;1.70;;;20.00;99.90;;;;;;5098098;28;20032;-66
2022/07/17 07:04:40;;;;;;;11.65;1.88;;;20.40;99.90;;;;;;5102615;28;20042;-66
2022/07/17 07:07:06;;;;;;;8.27;1.58;;;20.60;99.70;;;;;;5100477;28;20099;-66
2022/07/17 07:09:32;;;;;;;6.57;2.25;;;20.30;98.80;;;;;;5098046;28;20051;-66
2022/07/17 07:11:58;;;;;;;8.75;2.05;;;20.30;99.40;;;;;;5098306;28;20039;-68
2022/07/17 07:14:24;;;;;;;7.10;1.40;;;20.30;99.50;;;;;;5095207;28;20471;-65
2022/07/17 07:16:50;;;;;;;8.13;2.05;;;20.50;99.40;;;;;;5101954;28;20027;-66
2022/07/17 07:19:15;;;;;;;8.68;1.80;;;20.70;98.70;;;;;;5098044;28;20035;-66
2022/07/17 07:21:41;;;;;;;10.35;2.10;;;20.90;99.80;;;;;;5107141;28;20506;-74
2022/07/17 07:24:07;;;;;;;8.80;1.23;;;20.90;98.60;;;;;;5095465;28;20059;-67
2022/07/17 07:26:33;;;;;;;8.80;1.75;;;20.80;98.90;;;;;;5094245;28;20032;-68
2022/07/17 07:28:59;;;;;;;7.28;1.38;;;20.90;99.10;;;;;;5103692;28;20059;-67
2022/07/17 07:31:24;;;;;;;8.90;1.60;;;20.90;98.70;;;;;;5101201;28;20027;-66
2022/07/17 07:33:50;;;;;;;7.22;1.80;;;20.70;98.90;;;;;;5099829;28;20456;-67
2022/07/17 07:36:16;;;;;;;6.82;1.55;;;20.90;98.30;;;;;;5096074;28;20059;-67
2022/07/17 07:38:42;;;;;;;7.70;2.35;;;20.70;99.50;;;;;;5093898;28;20115;-67
2022/07/17 07:41:08;;;;;;;10.23;1.63;;;21.30;99.00;;;;;;5087390;28;20503;-70
2022/07/17 07:43:33;;;;;;;8.45;1.60;;;21.50;98.20;;;;;;5097962;28;20099;-67
2022/07/17 07:45:59;;;;;;;9.02;2.15;;;21.30;98.10;;;;;;5101901;28;20027;-66
2022/07/17 07:48:25;;;;;;;11.10;1.90;;;21.60;98.50;;;;;;5090166;28;20115;-73
2022/07/17 07:50:52;;;;;;;6.43;2.10;;;21.70;98.10;;;;;;5086790;28;20506;-67
2022/07/17 07:53:17;;;;;;;10.18;2.13;;;21.80;97.20;;;;;;5094735;28;20098;-66
2022/07/17 07:55:43;;;;;;;9.02;2.45;;;21.80;98.30;;;;;;5092830;28;20099;-66
2022/07/17 07:58:11;;;;;;;14.68;2.03;;;22.00;97.90;;;;;;5093736;28;20036;-66
2022/07/17 08:00:39;;;;;;;7.25;1.70;;;21.70;98.30;;;;;;5092604;28;20114;-66
2022/07/17 08:03:04;;;;;;;7.22;1.55;;;21.80;97.80;;;;;;5091688;28;20211;-67
2022/07/17 08:05:31;;;;;;;11.00;1.85;;;21.00;99.00;;;;;;5085121;28;20539;-67
2022/07/17 08:07:56;;;;;;;8.80;2.75;;;20.90;99.30;;;;;;5092090;28;20425;-66
2022/07/17 08:10:23;;;;;;;8.13;2.08;;;20.90;99.70;;;;;;5092518;28;20040;-67
2022/07/17 08:12:48;;;;;;;5.35;1.80;;;21.20;98.50;;;;;;5091145;28;20114;-67
2022/07/17 08:15:16;;;;;;;7.00;1.35;;;21.40;98.20;;;;;;5102865;28;20527;-69
2022/07/17 08:17:42;;;;;;;9.13;1.80;;;21.30;98.00;;;;;;5097161;28;20054;-67
2022/07/17 08:20:09;;;;;;;7.53;1.92;;;21.20;98.40;;;;;;5095946;28;20035;-67
2022/07/17 08:22:35;;;;;;;4.30;1.42;;;21.20;98.80;;;;;;5111415;28;20028;-66
2022/07/17 08:25:00;;;;;;;6.22;1.60;;;21.60;98.80;;;;;;5112984;28;20023;-72
2022/07/17 08:27:27;;;;;;;8.02;2.60;;;21.90;98.80;;;;;;5112896;28;20076;-66
2022/07/17 08:29:52;;;;;;;7.00;1.83;;;22.10;97.80;;;;;;5112558;28;20081;-66
2022/07/17 08:32:18;;;;;;;6.05;1.60;;;22.10;97.30;;;;;;5105732;28;20466;-67
2022/07/17 08:34:44;;;;;;;4.85;1.38;;;22.40;96.90;;;;;;5112771;28;20036;-68
2022/07/17 08:37:10;;;;;;;7.32;1.90;;;22.40;97.00;;;;;;5113079;28;20941;-67
2022/07/17 08:39:35;;;;;;;9.13;2.08;;;22.60;96.50;;;;;;5112596;28;20039;-67
2022/07/17 08:42:07;;;;;;;7.70;2.10;;;22.90;95.50;;;;;;5112634;28;20103;-68
2022/07/17 08:44:33;;;;;;;;;;;22.90;96.00;;;;;;5112722;28;20430;-66
2022/07/17 08:46:59;;;;;;;8.30;1.88;;;22.90;96.50;;;;;;5113235;28;19908;-66
2022/07/17 08:49:26;;;;;;;7.00;1.98;;;23.30;95.80;;;;;;5106199;28;20058;-67
2022/07/17 08:51:53;;;;;;;9.90;1.88;;;23.20;95.80;;;;;;5112648;28;20102;-66
2022/07/17 08:54:22;;;;;;;10.88;1.98;;;23.00;95.10;;;;;;5112638;28;20040;-66
2022/07/17 08:56:48;;;;;;;8.95;2.03;;;22.90;95.70;;;;;;5112270;28;20023;-67
2022/07/17 08:59:14;;;;;;;6.32;1.70;;;22.80;96.00;;;;;;5112053;28;20030;-69
2022/07/17 09:01:39;;;;;;;9.07;2.65;;;23.00;95.40;;;;;;5112690;28;20068;-65
2022/07/17 09:04:06;;;;;;;9.02;1.92;;;23.20;95.60;;;;;;5092724;28;20429;-70
2022/07/17 09:06:33;;;;;;;8.18;1.90;;;23.60;93.80;;;;;;5093437;28;20016;-67
2022/07/17 09:09:10;;;;;;;7.78;1.75;;;23.40;95.30;;;;;;5093225;28;20071;-67
2022/07/17 09:11:44;;;;;;;11.00;2.28;;;23.50;95.20;;;;;;5079538;28;20028;-72
2022/07/17 09:14:10;;;;;;;8.27;2.05;;;23.80;94.30;;;;;;5093815;28;20403;-73
2022/07/17 09:16:46;;;;;;;6.13;2.30;;;24.10;94.10;;;;;;5093413;28;20043;-71
2022/07/17 09:19:22;;;;;;;6.95;1.90;;;23.70;93.50;;;;;;5089797;28;20366;-68
2022/07/17 09:21:50;;;;;;;10.98;2.15;;;23.60;94.70;;;;;;5085001;28;20058;-67
2022/07/17 09:24:16;;;;;;;6.38;1.75;;;23.30;94.60;;;;;;5091033;28;20020;-64
2022/07/17 09:26:44;;;;;;;5.45;1.60;;;24.00;94.00;;;;;;5094086;28;20027;-64
2022/07/17 09:29:13;;;;;;;5.43;2.55;;;24.40;93.20;;;;;;5085861;28;20041;-73
2022/07/17 09:31:39;;;;;;;13.50;3.30;;;24.60;92.70;;;;;;5093769;28;20028;-65
2022/07/17 09:34:05;;;;;;;7.82;1.77;;;24.80;92.00;;;;;;5093789;28;20023;-64
2022/07/17 09:36:31;;;;;;;4.88;1.73;;;24.50;91.80;;;;;;5087111;28;20032;-64
2022/07/17 09:38:58;;;;;;;4.32;1.50;;;24.60;92.20;;;;;;5083705;28;20388;-66
2022/07/17 09:41:25;;;;;;;4.75;1.70;;;24.50;93.00;;;;;;5094014;28;20428;-64
2022/07/17 09:43:52;;;;;;;5.93;1.60;;;24.80;92.20;;;;;;5095088;28;20028;-64
2022/07/17 09:46:27;;;;;;;8.32;2.17;;;24.60;92.00;;;;;;5092085;28;20024;-67
2022/07/17 09:48:54;;;;;;;4.43;1.48;;;24.40;92.60;;;;;;5084340;28;20036;-65
2022/07/17 09:51:29;;;;;;;7.63;1.65;;;25.00;92.10;;;;;;5089835;28;20024;-64
2022/07/17 09:54:01;;;;;;;6.65;2.38;;;25.70;91.90;;;;;;5095372;28;20427;-65
2022/07/17 09:56:30;;;;;;;8.63;1.88;;;25.20;90.60;;;;;;5095903;28;20016;-65
2022/07/17 09:59:05;;;;;;;8.38;1.90;;;25.30;90.80;;;;;;5097612;28;20032;-65
2022/07/17 10:01:31;;;;;;;6.13;2.05;;;25.40;90.50;;;;;;5097139;28;20032;-64
2022/07/17 10:03:57;;;;;;;4.53;1.58;;;25.20;90.80;;;;;;5105499;28;20375;-64
2022/07/17 10:06:24;;;;;;;6.15;1.45;;;25.40;90.40;;;;;;5093135;28;20032;-66
2022/07/17 10:08:51;;;;;;;9.18;2.03;;;25.40;90.80;;;;;;5097466;28;20123;-64
2022/07/17 10:11:23;;;;;;;5.10;1.77;;;25.50;90.00;;;;;;5097218;28;20439;-66
2022/07/17 10:13:52;;;;;;;4.28;1.58;;;25.10;91.40;;;;;;5108753;28;20028;-66
2022/07/17 10:16:26;;;;;;;4.80;1.90;;;25.20;91.30;;;;;;5107778;28;20026;-71
2022/07/17 10:18:54;;;;;;;4.53;2.10;;;25.60;91.00;;;;;;5098380;28;20028;-65
2022/07/17 10:21:21;;;;;;;4.82;2.25;;;25.90;90.20;;;;;;5104148;28;20062;-64
2022/07/17 10:24:09;;;;;;;3.75;1.90;;;25.50;90.00;;;;;;5115769;28;20077;-66
2022/07/17 10:26:43;;;;;;;4.53;2.30;;;25.40;90.70;;;;;;5081931;28;20048;-65
2022/07/17 10:29:26;;;;;;;6.93;2.95;;;25.60;89.40;;;;;;5090806;28;20071;-64
2022/07/17 10:31:53;;;;;;;7.07;2.65;;;25.20;88.90;;;;;;5105087;28;20054;-67
2022/07/17 10:34:21;;;;;;;5.47;2.65;;;25.40;90.00;;;;;;5102527;28;20376;-65
2022/07/17 10:36:48;;;;;;;5.78;2.58;;;25.70;90.10;;;;;;5093501;28;20036;-65
2022/07/17 10:39:20;;;;;;;8.77;2.67;;;25.90;88.70;;;;;;5096575;28;20024;-67
2022/07/17 10:42:00;;;;;;;6.95;2.40;;;26.00;87.40;;;;;;5094834;28;20028;-66
2022/07/17 10:44:34;;;;;;;5.55;2.70;;;26.40;87.30;;;;;;5095009;28;20024;-81
2022/07/17 10:47:00;;;;;;;7.18;2.55;;;26.60;88.90;;;;;;5095174;28;20031;-69
2022/07/17 10:49:26;;;;;;;5.43;3.22;;;27.00;87.10;;;;;;5090511;28;20032;-81
2022/07/17 10:51:53;;;;;;;4.40;2.25;;;27.10;87.50;;;;;;5083882;28;20146;-71
2022/07/17 10:54:19;;;;;;;4.35;2.42;;;27.00;86.60;;;;;;5088300;28;20039;-65
2022/07/17 10:56:46;;;;;;;6.80;2.97;;;26.90;85.30;;;;;;5093224;28;20041;-65
2022/07/17 10:59:12;;;;;;;9.02;3.13;;;26.60;85.90;;;;;;5094511;28;20071;-65
2022/07/17 11:01:38;;;;;;;5.55;3.25;;;26.50;84.10;;;;;;5095013;28;20357;-65
2022/07/17 11:04:06;;;;;;;6.30;2.85;;;26.50;82.60;;;;;;5094863;28;20024;-67
2022/07/17 11:06:36;;;;;;;4.13;2.45;;;26.70;82.80;;;;;;5094984;28;20476;-71
2022/07/17 11:09:13;;;;;;;5.53;2.47;;;26.40;86.20;;;;;;5094259;28;20063;-66
2022/07/17 11:11:44;;;;;;;4.32;2.42;;;26.80;85.40;;;;;;5094188;28;20495;-65
2022/07/17 11:14:14;;;;;;;8.82;2.78;;;26.20;85.00;;;;;;5094568;28;20053;-67
2022/07/17 11:16:58;;;;;;;4.03;2.60;;;26.00;85.60;;;;;;5094744;28;20055;-65
2022/07/17 11:19:30;;;;;;;6.93;3.30;;;26.50;86.80;;;;;;5094551;28;20028;-65
2022/07/17 11:21:58;;;;;;;5.30;2.92;;;27.00;86.90;;;;;;5107311;28;20107;-66
2022/07/17 11:24:26;;;;;;;8.65;3.38;;;27.00;84.00;;;;;;5114555;28;20094;-66
2022/07/17 11:26:52;;;;;;;5.63;3.50;;;26.80;83.40;;;;;;5115152;28;20551;-65
2022/07/17 11:29:18;;;;;;;6.75;3.30;;;27.20;83.70;;;;;;5114641;28;20487;-66
2022/07/17 11:31:44;;;;;;;7.00;2.80;;;27.20;82.90;;;;;;5114829;28;20031;-65
2022/07/17 11:34:11;;;;;;;4.65;2.80;;;27.30;84.20;;;;;;5115042;28;20412;-65
2022/07/17 11:36:43;;;;;;;7.35;2.92;;;27.40;83.60;;;;;;5114749;28;20529;-65
2022/07/17 11:39:13;;;;;;;7.57;3.50;;;27.20;82.60;;;;;;5112834;28;20078;-65
2022/07/17 11:41:44;;;;;;;4.95;3.17;;;27.80;82.50;;;;;;5114905;28;20122;-68
2022/07/17 11:44:12;;;;;;;;;;;27.60;80.70;;;;;;5115195;28;20073;-66
2022/07/17 11:46:40;;;;;;;6.90;3.10;;;27.70;81.40;;;;;;5114770;28;20279;-65
2022/07/17 11:49:06;;;;;;;6.97;3.40;;;28.60;82.00;;;;;;5114944;28;20039;-66
2022/07/17 11:51:50;;;;;;;5.60;3.40;;;28.90;81.50;;;;;;5114578;28;20093;-66
2022/07/17 11:54:16;;;;;;;6.40;3.50;;;29.00;81.00;;;;;;5114544;28;20519;-66
2022/07/17 11:56:51;;;;;;;8.70;3.08;;;29.30;81.40;;;;;;5111437;28;20099;-66
2022/07/17 11:59:28;;;;;;;6.28;3.25;;;29.50;81.40;;;;;;5114867;28;20035;-66
2022/07/17 12:01:54;;;;;;;6.05;3.72;;;29.90;78.50;;;;;;5114360;28;20027;-66
2022/07/17 12:04:20;;;;;;;4.07;3.05;;;29.70;77.20;;;;;;5114503;28;20030;-66
2022/07/17 12:06:57;;;;;;;8.75;3.60;;;29.10;78.20;;;;;;5114568;28;20023;-65
2022/07/17 12:09:27;;;;;;;8.05;3.50;;;29.50;79.60;;;;;;5113601;28;20440;-67
2022/07/17 12:11:52;;;;;;;6.70;3.50;;;29.90;79.70;;;;;;5114309;28;20026;-65
2022/07/17 12:14:18;;;;;;;5.28;3.40;;;30.10;77.10;;;;;;5112960;28;20376;-68
2022/07/17 12:16:44;;;;;;;7.45;3.33;;;30.10;78.70;;;;;;5114035;28;20039;-65
2022/07/17 12:19:14;;;;;;;7.03;3.22;;;30.10;78.50;;;;;;5113572;28;20024;-66
2022/07/17 12:21:59;;;;;;;8.05;3.78;;;30.20;77.30;;;;;;5114052;28;20031;-67
2022/07/17 12:24:36;;;;;;;7.20;3.53;;;30.00;76.40;;;;;;5114040;28;20057;-66
2022/07/17 12:27:05;;;;;;;7.45;3.35;;;29.60;77.20;;;;;;5114125;28;20383;-66
2022/07/17 12:29:31;;;;;;;8.15;3.63;;;30.10;75.00;;;;;;5113572;28;20038;-66
2022/07/17 12:32:14;;;;;;;7.53;3.55;;;29.70;76.00;;;;;;5114011;28;20387;-77
2022/07/17 12:34:46;;;;;;;6.55;3.75;;;30.10;76.50;;;;;;5113936;28;20468;-66
2022/07/17 12:37:12;;;;;;;9.02;4.32;;;29.40;73.60;;;;;;5113594;28;20392;-66
2022/07/17 12:39:38;;;;;;;5.53;3.10;;;29.80;74.70;;;;;;5113552;28;20031;-66
2022/07/17 12:42:04;;;;;;;8.38;3.33;;;30.20;73.70;;;;;;5114012;28;20031;-65
2022/07/17 12:44:30;;;;;;;4.05;2.72;;;30.00;73.70;;;;;;5086356;28;20412;-65
2022/07/17 12:46:56;;;;;;;8.60;4.13;;;29.90;74.60;;;;;;5102668;28;20022;-66